Time;durP1;ratioP1;P1;durP2;ratioP2;P2;SDS_P1;SDS_P2;PMS_P1;PMS_P2;Temp;Humidity;BMP_temperature;BMP_pressure;BME280_temperature;BME280_humidity;BME280_pressure;Samples;Min_cycle;Max_cycle;Signal;HPM_P1;HPM_P2
2021/11/09 00:02:16;;;;;;;1.88;1.75;;;8.80;99.90;;;;;;5052203;28;20013;-76
2021/11/09 00:04:47;;;;;;;2.85;2.28;;;8.70;99.90;;;;;;5052218;28;20020;-76
2021/11/09 00:09:57;;;;;;;3.42;2.20;;;8.80;99.90;;;;;;5051491;28;20132;-76
2021/11/09 00:12:34;;;;;;;2.58;2.38;;;8.80;99.90;;;;;;5051439;28;20021;-76
2021/11/09 00:15:03;;;;;;;3.35;1.95;;;8.80;99.90;;;;;;5051317;28;20491;-76
2021/11/09 00:17:29;;;;;;;3.47;2.08;;;8.80;99.90;;;;;;5052004;28;20029;-76
2021/11/09 00:19:55;;;;;;;3.28;2.08;;;8.80;99.90;;;;;;5051894;28;20040;-76
2021/11/09 00:22:22;;;;;;;2.42;2.22;;;8.80;99.90;;;;;;5050577;28;20063;-77
2021/11/09 00:24:49;;;;;;;2.78;2.58;;;8.80;99.90;;;;;;5054038;28;20483;-76
2021/11/09 00:27:14;;;;;;;2.80;2.60;;;8.70;99.90;;;;;;5071717;28;20024;-76
2021/11/09 00:29:41;;;;;;;2.30;2.20;;;8.70;99.90;;;;;;5071691;28;20032;-76
2021/11/09 00:32:07;;;;;;;2.30;2.10;;;8.70;99.90;;;;;;5070444;28;20043;-76
2021/11/09 00:34:33;;;;;;;3.97;2.58;;;8.70;99.90;;;;;;5071393;28;20433;-76
2021/11/09 00:37:00;;;;;;;2.38;2.22;;;8.70;99.90;;;;;;5070357;28;20028;-76
2021/11/09 00:39:26;;;;;;;4.28;3.00;;;8.60;99.90;;;;;;5070555;28;20028;-76
2021/11/09 00:41:51;;;;;;;2.38;2.22;;;8.60;99.90;;;;;;5071451;28;20093;-76
2021/11/09 00:44:18;;;;;;;3.53;2.67;;;8.60;99.90;;;;;;5071549;28;20025;-76
2021/11/09 00:46:44;;;;;;;3.00;2.78;;;8.60;99.90;;;;;;5071749;28;20023;-76
2021/11/09 00:49:10;;;;;;;2.88;2.67;;;8.50;99.90;;;;;;5071086;28;20020;-76
2021/11/09 00:51:36;;;;;;;2.90;2.70;;;8.50;99.90;;;;;;5071424;28;20031;-76
2021/11/09 00:54:03;;;;;;;2.60;2.40;;;8.50;99.90;;;;;;5070260;28;20024;-76
2021/11/09 00:56:30;;;;;;;3.15;2.63;;;8.50;99.90;;;;;;5071303;28;20035;-77
2021/11/09 00:58:55;;;;;;;2.70;2.50;;;8.50;99.90;;;;;;5070140;28;20025;-76
2021/11/09 01:01:21;;;;;;;4.00;2.85;;;8.50;99.90;;;;;;5071433;28;20038;-76
2021/11/09 01:03:47;;;;;;;3.50;2.95;;;8.60;99.90;;;;;;5071386;28;20063;-76
2021/11/09 01:06:13;;;;;;;5.22;2.67;;;8.60;99.90;;;;;;5071349;28;20052;-76
2021/11/09 01:08:39;;;;;;;4.30;2.88;;;8.60;99.90;;;;;;5071557;28;20033;-76
2021/11/09 01:11:05;;;;;;;3.67;2.72;;;8.60;99.90;;;;;;5071355;28;20085;-76
2021/11/09 01:13:31;;;;;;;2.97;2.78;;;8.50;99.90;;;;;;5069938;28;20103;-76
2021/11/09 01:15:58;;;;;;;2.67;2.47;;;8.50;99.90;;;;;;5071458;28;20135;-76
2021/11/09 01:18:32;;;;;;;4.05;2.78;;;8.50;99.90;;;;;;5071187;28;20115;-76
2021/11/09 01:20:58;;;;;;;2.92;2.72;;;8.50;99.90;;;;;;5071632;28;20035;-76
2021/11/09 01:23:25;;;;;;;2.47;2.28;;;8.60;99.90;;;;;;5071089;28;20021;-76
2021/11/09 01:25:51;;;;;;;3.13;2.63;;;8.50;99.90;;;;;;5072667;28;20024;-76
2021/11/09 01:28:17;;;;;;;3.63;2.70;;;8.50;99.90;;;;;;5075319;28;20394;-76
2021/11/09 01:30:44;;;;;;;2.95;2.65;;;8.50;99.90;;;;;;5075131;28;20655;-76
2021/11/09 01:33:09;;;;;;;2.67;2.47;;;8.50;99.90;;;;;;5073672;28;20028;-76
2021/11/09 01:35:35;;;;;;;2.75;2.45;;;8.50;99.90;;;;;;5075010;28;20067;-76
2021/11/09 01:38:02;;;;;;;3.70;2.50;;;8.50;99.90;;;;;;5074885;28;20039;-76
2021/11/09 01:40:29;;;;;;;2.40;2.20;;;8.50;99.90;;;;;;5075015;28;20017;-76
2021/11/09 01:42:56;;;;;;;2.67;2.45;;;8.40;99.90;;;;;;5074933;28;20029;-76
2021/11/09 01:45:25;;;;;;;2.92;2.72;;;8.40;99.90;;;;;;5073643;28;20031;-76
2021/11/09 01:47:52;;;;;;;2.83;2.60;;;8.30;99.90;;;;;;5074824;28;20046;-76
2021/11/09 01:50:33;;;;;;;2.88;2.67;;;8.30;99.90;;;;;;5073454;28;20120;-76
2021/11/09 01:52:58;;;;;;;2.85;2.42;;;8.20;99.90;;;;;;5073600;28;20552;-76
2021/11/09 01:55:26;;;;;;;2.60;2.40;;;8.30;99.90;;;;;;5054670;28;20029;-76
2021/11/09 01:57:54;;;;;;;2.75;2.55;;;8.30;99.90;;;;;;5054427;28;20029;-76
2021/11/09 02:00:26;;;;;;;4.68;2.50;;;8.30;99.90;;;;;;5054489;28;20029;-76
2021/11/09 02:02:52;;;;;;;5.28;2.67;;;8.20;99.90;;;;;;5054592;28;20029;-76
2021/11/09 02:05:20;;;;;;;2.78;2.58;;;8.20;99.90;;;;;;5053369;28;20017;-76
2021/11/09 02:07:54;;;;;;;2.38;2.17;;;8.20;99.90;;;;;;5053922;28;20557;-76
2021/11/09 02:10:28;;;;;;;2.50;2.30;;;8.20;99.90;;;;;;5053875;28;20025;-76
2021/11/09 02:12:55;;;;;;;2.42;2.22;;;8.20;99.90;;;;;;5054238;28;20029;-76
2021/11/09 02:15:21;;;;;;;3.28;2.67;;;8.20;99.90;;;;;;5054120;28;20035;-76
2021/11/09 02:17:49;;;;;;;2.33;2.15;;;8.20;99.90;;;;;;5055151;28;20471;-76
2021/11/09 02:20:18;;;;;;;2.45;2.28;;;8.20;99.90;;;;;;5055344;28;20154;-76
2021/11/09 02:22:45;;;;;;;2.55;2.35;;;8.10;99.90;;;;;;5055956;28;20029;-76
2021/11/09 02:25:14;;;;;;;2.92;2.33;;;8.10;99.90;;;;;;5073202;28;20429;-76
2021/11/09 02:27:42;;;;;;;2.42;2.22;;;8.10;99.90;;;;;;5073254;28;20024;-76
2021/11/09 02:30:11;;;;;;;3.60;2.60;;;8.10;99.90;;;;;;5074384;28;20032;-76
2021/11/09 02:32:37;;;;;;;2.58;2.38;;;8.10;99.90;;;;;;5074253;28;20025;-76
2021/11/09 02:35:05;;;;;;;2.30;2.08;;;8.10;99.90;;;;;;5074167;28;20398;-76
2021/11/09 02:37:31;;;;;;;2.42;2.22;;;8.10;99.90;;;;;;5073106;28;20024;-76
2021/11/09 02:39:58;;;;;;;2.15;1.98;;;8.10;99.90;;;;;;5072591;28;20020;-76
2021/11/09 02:42:31;;;;;;;2.53;2.33;;;8.00;99.90;;;;;;5074016;28;20024;-76
2021/11/09 02:45:03;;;;;;;2.47;2.20;;;8.00;99.90;;;;;;5073937;28;20051;-76
2021/11/09 02:47:31;;;;;;;2.67;2.47;;;8.00;99.90;;;;;;5072189;28;20387;-76
2021/11/09 02:52:28;;;;;;;2.22;2.03;;;8.00;99.90;;;;;;5073868;28;20032;-76
2021/11/09 02:55:01;;;;;;;2.10;2.00;;;8.00;99.90;;;;;;5055562;28;20025;-76
2021/11/09 02:57:37;;;;;;;1.95;1.85;;;7.90;99.90;;;;;;5052471;28;20115;-76
2021/11/09 03:02:54;;;;;;;2.40;2.17;;;7.90;99.90;;;;;;5053667;28;20029;-76
2021/11/09 03:05:40;;;;;;;1.70;1.60;;;8.00;99.90;;;;;;5052221;28;20035;-76
2021/11/09 03:08:53;;;;;;;2.03;1.92;;;8.00;99.90;;;;;;5052188;28;20060;-76
2021/11/09 03:11:05;;;;;;;2.33;2.13;;;8.00;99.90;;;;;;5052146;28;20036;-76
2021/11/09 03:13:32;;;;;;;2.10;1.83;;;8.00;99.90;;;;;;5052073;28;20513;-76
2021/11/09 03:16:04;;;;;;;2.05;1.77;;;8.00;99.90;;;;;;5053451;28;20028;-76
2021/11/09 03:18:37;;;;;;;1.85;1.75;;;8.00;99.90;;;;;;5051856;28;20549;-76
2021/11/09 03:45:31;;;;;;;2.53;1.52;;;7.80;99.90;;;;;;5052638;28;20086;-76
2021/11/09 03:48:08;;;;;;;2.67;1.48;;;7.80;99.90;;;;;;5051233;28;20131;-76
2021/11/09 03:50:37;;;;;;;2.42;2.22;;;7.80;99.90;;;;;;5051581;28;20025;-76
2021/11/09 03:53:14;;;;;;;2.65;1.35;;;7.80;99.90;;;;;;5052409;28;20119;-76
2021/11/09 03:56:27;;;;;;;2.15;1.98;;;7.80;99.90;;;;;;5052576;28;20075;-76
2021/11/09 03:58:38;;;;;;;2.42;1.48;;;7.80;99.90;;;;;;5049213;28;20025;-76
2021/11/09 04:01:13;;;;;;;1.83;1.73;;;7.80;99.90;;;;;;5052245;28;20066;-76
2021/11/09 04:04:10;;;;;;;2.28;1.60;;;7.80;99.90;;;;;;5052447;28;20052;-76
2021/11/09 04:06:43;;;;;;;2.00;1.90;;;7.70;99.90;;;;;;5052378;28;20111;-76
2021/11/09 04:09:31;;;;;;;2.30;1.55;;;7.80;99.90;;;;;;5052142;28;20049;-76
2021/11/09 04:12:09;;;;;;;3.25;1.98;;;7.80;99.90;;;;;;5052164;28;20021;-76
2021/11/09 04:17:41;;;;;;;2.25;2.05;;;7.80;99.90;;;;;;5052000;28;20438;-76
2021/11/09 04:28:28;;;;;;;2.58;1.80;;;7.80;99.90;;;;;;5043431;28;20025;-76
2021/11/09 04:31:23;;;;;;;2.05;1.95;;;7.80;99.90;;;;;;5061117;28;20036;-76
2021/11/09 05:08:56;;;;;;;1.92;1.67;;;7.60;99.90;;;;;;5071462;28;20048;-76
2021/11/09 05:11:21;;;;;;;1.77;1.50;;;7.60;99.90;;;;;;5069927;28;20267;-76
2021/11/09 05:13:47;;;;;;;2.20;2.00;;;7.60;99.90;;;;;;5071249;28;20040;-76
2021/11/09 05:16:13;;;;;;;3.13;1.52;;;7.60;99.90;;;;;;5070074;28;20029;-76
2021/11/09 05:18:39;;;;;;;1.48;1.38;;;7.60;99.90;;;;;;5071176;28;20024;-76
2021/11/09 05:21:05;;;;;;;3.08;1.63;;;7.60;99.90;;;;;;5071256;28;20418;-76
2021/11/09 05:23:31;;;;;;;1.80;1.70;;;7.60;99.90;;;;;;5071317;28;20052;-76
2021/11/09 05:25:56;;;;;;;2.65;1.77;;;7.50;99.90;;;;;;5071201;28;20021;-76
2021/11/09 05:28:24;;;;;;;1.60;1.50;;;7.60;99.90;;;;;;5069979;28;20078;-76
2021/11/09 05:30:51;;;;;;;1.90;1.70;;;7.60;99.90;;;;;;5071089;28;20225;-76
2021/11/09 05:33:18;;;;;;;2.42;1.83;;;7.50;99.90;;;;;;5071194;28;20063;-76
2021/11/09 05:35:45;;;;;;;1.70;1.60;;;7.60;99.90;;;;;;5069611;28;20056;-76
2021/11/09 05:38:13;;;;;;;1.90;1.80;;;7.60;99.90;;;;;;5069818;28;20025;-76
2021/11/09 05:40:41;;;;;;;2.20;2.00;;;7.50;99.90;;;;;;5071016;28;20031;-76
2021/11/09 05:43:08;;;;;;;2.05;1.95;;;7.50;99.90;;;;;;5069768;28;20437;-76
2021/11/09 05:45:34;;;;;;;2.17;1.98;;;7.50;99.90;;;;;;5071199;28;20035;-76
2021/11/09 05:48:00;;;;;;;2.05;1.95;;;7.50;99.90;;;;;;5069713;28;20475;-76
2021/11/09 05:50:28;;;;;;;2.90;2.05;;;7.50;99.90;;;;;;5069545;28;20287;-76
2021/11/09 05:52:53;;;;;;;2.47;2.10;;;7.50;99.90;;;;;;5067956;28;20043;-76
2021/11/09 05:55:19;;;;;;;1.75;1.65;;;7.50;99.90;;;;;;5055802;28;20033;-76
2021/11/09 05:57:46;;;;;;;2.72;2.38;;;7.50;99.90;;;;;;5068974;28;20032;-76
2021/11/09 06:00:13;;;;;;;2.20;2.10;;;7.50;99.90;;;;;;5070823;28;20024;-76
2021/11/09 06:02:39;;;;;;;4.55;2.60;;;7.50;99.90;;;;;;5066356;28;20021;-76
2021/11/09 06:05:06;;;;;;;3.53;2.35;;;7.50;99.90;;;;;;5050804;28;20021;-76
2021/11/09 06:07:31;;;;;;;2.75;2.30;;;7.60;99.90;;;;;;5064758;28;20029;-76
2021/11/09 06:09:57;;;;;;;2.47;2.30;;;7.60;99.90;;;;;;5062894;28;20097;-76
2021/11/09 06:12:23;;;;;;;5.03;2.40;;;7.60;99.90;;;;;;5069600;28;20032;-76
2021/11/09 06:14:49;;;;;;;2.70;2.40;;;7.60;99.90;;;;;;5072529;28;20120;-76
2021/11/09 06:17:15;;;;;;;4.82;2.33;;;7.60;99.90;;;;;;5073850;28;20108;-76
2021/11/09 06:19:40;;;;;;;2.63;2.42;;;7.70;99.90;;;;;;5073672;28;20104;-76
2021/11/09 06:22:06;;;;;;;2.60;2.33;;;7.60;99.90;;;;;;5073694;28;20023;-76
2021/11/09 06:24:32;;;;;;;4.47;2.50;;;7.70;99.90;;;;;;5072508;28;20036;-76
2021/11/09 06:26:59;;;;;;;2.72;2.53;;;7.70;99.90;;;;;;5072925;28;20032;-76
2021/11/09 06:29:24;;;;;;;2.58;2.38;;;7.80;99.90;;;;;;5070596;28;20031;-76
2021/11/09 06:31:51;;;;;;;2.75;2.53;;;7.80;99.90;;;;;;5072851;28;20394;-76
2021/11/09 06:34:17;;;;;;;2.58;2.38;;;7.90;99.90;;;;;;5072009;28;20025;-76
2021/11/09 06:36:42;;;;;;;2.97;2.72;;;7.90;99.90;;;;;;5071656;28;20101;-76
2021/11/09 06:39:08;;;;;;;2.85;2.50;;;7.90;99.90;;;;;;5073246;28;20108;-76
2021/11/09 06:41:34;;;;;;;2.63;2.42;;;7.90;99.90;;;;;;5073271;28;20554;-76
2021/11/09 06:44:00;;;;;;;6.40;2.65;;;7.80;99.90;;;;;;5072448;28;20017;-76
2021/11/09 06:46:26;;;;;;;4.40;2.83;;;7.90;99.90;;;;;;5072626;28;20025;-76
2021/11/09 06:48:52;;;;;;;3.05;2.67;;;7.90;99.90;;;;;;5073718;28;20040;-76
2021/11/09 06:51:18;;;;;;;2.90;2.33;;;7.90;99.90;;;;;;5072539;28;20033;-76
2021/11/09 06:53:44;;;;;;;2.85;2.35;;;7.90;99.90;;;;;;5073746;28;20029;-76
2021/11/09 06:56:10;;;;;;;2.63;2.42;;;7.90;99.90;;;;;;5073288;28;20020;-76
2021/11/09 06:58:36;;;;;;;4.88;3.00;;;8.00;99.90;;;;;;5074178;28;20492;-76
2021/11/09 07:01:04;;;;;;;3.38;2.95;;;7.90;99.90;;;;;;5072833;28;20099;-76
2021/11/09 07:03:33;;;;;;;2.70;2.50;;;8.00;99.90;;;;;;5072961;28;20082;-76
2021/11/09 07:05:59;;;;;;;2.97;2.60;;;8.00;99.90;;;;;;5072415;28;20486;-76
2021/11/09 07:08:25;;;;;;;2.30;2.20;;;8.00;99.90;;;;;;5071897;28;20028;-76
2021/11/09 07:10:51;;;;;;;2.47;2.28;;;8.10;99.90;;;;;;5073406;28;20115;-76
2021/11/09 07:13:16;;;;;;;2.55;2.38;;;8.10;99.90;;;;;;5073296;28;20103;-76
2021/11/09 07:15:42;;;;;;;2.63;2.42;;;8.20;99.90;;;;;;5073351;28;20115;-76
2021/11/09 07:18:09;;;;;;;3.10;2.88;;;8.20;99.90;;;;;;5073214;28;20020;-76
2021/11/09 07:20:37;;;;;;;3.90;2.28;;;8.20;99.90;;;;;;5071943;28;20094;-76
2021/11/09 07:23:03;;;;;;;2.72;2.50;;;8.30;99.90;;;;;;5071478;28;20391;-76
2021/11/09 07:25:30;;;;;;;3.45;2.60;;;8.30;99.90;;;;;;5072954;28;20044;-76
2021/11/09 07:27:56;;;;;;;5.05;2.63;;;8.40;99.90;;;;;;5073034;28;20031;-76
2021/11/09 07:30:26;;;;;;;2.60;2.38;;;8.40;99.90;;;;;;5072906;28;20039;-76
2021/11/09 07:32:52;;;;;;;2.00;1.90;;;8.50;99.90;;;;;;5072803;28;20031;-76
2021/11/09 07:35:21;;;;;;;2.30;2.10;;;8.60;99.90;;;;;;5071298;28;20045;-76
2021/11/09 07:37:47;;;;;;;2.15;2.00;;;8.60;99.90;;;;;;5071393;28;20040;-76
2021/11/09 07:40:13;;;;;;;2.63;2.42;;;8.70;99.90;;;;;;5072547;28;20017;-76
2021/11/09 07:42:50;;;;;;;5.15;2.45;;;8.70;99.90;;;;;;5072805;28;20021;-76
2021/11/09 07:45:21;;;;;;;2.70;2.50;;;8.70;99.90;;;;;;5073100;28;20024;-76
2021/11/09 07:47:47;;;;;;;3.25;2.45;;;8.80;99.90;;;;;;5071252;28;20078;-76
2021/11/09 07:50:14;;;;;;;3.05;2.38;;;8.90;99.90;;;;;;5071151;28;20106;-76
2021/11/09 07:52:45;;;;;;;2.70;2.50;;;8.90;99.90;;;;;;5073267;28;20029;-76
2021/11/09 07:55:18;;;;;;;2.10;2.00;;;9.00;99.90;;;;;;5072463;28;20115;-76
2021/11/09 07:57:48;;;;;;;2.75;2.55;;;9.10;99.90;;;;;;5072927;28;20478;-76
2021/11/09 08:00:27;;;;;;;5.50;2.20;;;9.20;99.90;;;;;;5073025;28;20038;-76
2021/11/09 08:08:16;;;;;;;4.60;2.10;;;9.50;99.90;;;;;;5072195;28;20044;-76
2021/11/09 08:10:43;;;;;;;8.38;2.30;;;9.60;99.90;;;;;;5070999;28;20020;-76
2021/11/09 08:13:09;;;;;;;2.00;1.67;;;9.70;99.90;;;;;;5072122;28;20024;-76
2021/11/09 08:15:36;;;;;;;2.58;2.13;;;9.80;99.90;;;;;;5071782;28;20028;-75
2021/11/09 08:18:03;;;;;;;3.33;1.90;;;9.80;99.90;;;;;;5071961;28;20027;-76
2021/11/09 08:20:28;;;;;;;2.75;2.00;;;9.90;99.90;;;;;;5071851;28;20486;-76
2021/11/09 08:22:54;;;;;;;2.70;2.08;;;9.90;99.90;;;;;;5071348;28;20027;-76
2021/11/09 08:25:20;;;;;;;2.20;1.92;;;9.90;99.90;;;;;;5071162;28;20107;-76
2021/11/09 08:27:46;;;;;;;5.13;2.05;;;10.00;99.90;;;;;;5071541;28;20032;-76
2021/11/09 08:30:13;;;;;;;1.85;1.75;;;10.00;99.90;;;;;;5071736;28;20103;-76
2021/11/09 08:32:42;;;;;;;4.45;2.40;;;10.10;99.90;;;;;;5071573;28;20394;-76
2021/11/09 08:35:11;;;;;;;3.20;2.17;;;10.10;99.90;;;;;;5070936;28;20119;-76
2021/11/09 08:37:37;;;;;;;2.38;2.08;;;10.10;99.90;;;;;;5071658;28;20021;-76
2021/11/09 08:40:10;;;;;;;4.63;2.55;;;10.10;99.90;;;;;;5071528;28;20024;-76
2021/11/09 08:42:40;;;;;;;3.25;2.65;;;10.20;99.90;;;;;;5070288;28;20033;-76
2021/11/09 08:47:55;;;;;;;7.07;2.35;;;10.30;99.90;;;;;;5071750;28;20512;-76
2021/11/09 08:50:25;;;;;;;2.33;1.88;;;10.40;99.90;;;;;;5071488;28;20013;-76
2021/11/09 08:52:53;;;;;;;2.30;2.10;;;10.50;99.90;;;;;;5070202;28;20032;-76
2021/11/09 09:06:02;;;;;;;3.38;2.53;;;10.70;99.90;;;;;;5079509;28;20542;-76
2021/11/09 09:08:29;;;;;;;2.30;2.10;;;10.70;99.90;;;;;;5071179;28;20020;-76
2021/11/09 09:10:55;;;;;;;2.50;1.98;;;10.70;99.90;;;;;;5071336;28;20024;-76
2021/11/09 09:13:20;;;;;;;2.72;1.80;;;10.60;99.90;;;;;;5069919;28;20037;-76
2021/11/09 09:15:46;;;;;;;2.40;1.80;;;10.60;99.90;;;;;;5071534;28;20056;-76
2021/11/09 09:18:15;;;;;;;1.55;1.45;;;10.60;99.90;;;;;;5068795;28;20031;-76
2021/11/09 09:20:44;;;;;;;3.40;1.60;;;10.60;99.90;;;;;;5066243;28;20256;-76
2021/11/09 09:23:20;;;;;;;2.22;2.03;;;10.60;99.90;;;;;;5066612;28;20137;-76
2021/11/09 09:26:02;;;;;;;2.03;1.83;;;10.60;99.90;;;;;;5066551;28;20110;-76
2021/11/09 09:31:44;;;;;;;2.20;2.10;;;10.60;99.90;;;;;;5067403;28;20035;-76
2021/11/09 09:55:51;;;;;;;2.38;2.17;;;11.10;99.90;;;;;;5074744;28;20025;-82
2021/11/09 09:58:17;;;;;;;1.83;1.73;;;11.20;99.90;;;;;;5074487;28;20575;-82
2021/11/09 10:00:44;;;;;;;2.08;1.85;;;11.20;99.90;;;;;;5074724;28;20036;-82
2021/11/09 10:03:10;;;;;;;2.10;2.00;;;11.20;99.90;;;;;;5074286;28;20017;-82
2021/11/09 10:05:39;;;;;;;4.40;2.20;;;11.30;99.90;;;;;;5071468;28;20096;-81
2021/11/09 10:08:22;;;;;;;3.65;2.00;;;11.40;99.90;;;;;;5069718;28;20025;-82
2021/11/09 10:10:51;;;;;;;2.78;2.03;;;11.40;99.90;;;;;;5070096;28;20111;-81
2021/11/09 10:13:23;;;;;;;2.38;1.80;;;11.40;99.90;;;;;;5069685;28;20111;-81
2021/11/09 10:15:56;;;;;;;2.22;2.03;;;11.50;99.90;;;;;;5067514;28;20024;-81
2021/11/09 10:18:24;;;;;;;3.65;1.80;;;11.50;99.90;;;;;;5070276;28;20029;-81
2021/11/09 10:20:52;;;;;;;4.18;1.70;;;11.60;99.90;;;;;;5069044;28;20486;-82
2021/11/09 10:23:25;;;;;;;2.80;1.80;;;11.60;99.90;;;;;;5069355;28;20024;-82
2021/11/09 10:25:59;;;;;;;1.98;1.70;;;11.70;99.90;;;;;;5069742;28;20115;-83
2021/11/09 10:28:26;;;;;;;2.25;1.70;;;11.80;99.90;;;;;;5068992;28;20115;-80
2021/11/09 10:31:01;;;;;;;1.80;1.70;;;11.80;99.90;;;;;;5070170;28;20090;-82
2021/11/09 10:33:40;;;;;;;2.38;1.85;;;11.90;99.90;;;;;;5073976;28;20032;-82
2021/11/09 10:36:24;;;;;;;3.58;1.90;;;11.90;99.90;;;;;;5073651;28;20044;-82
2021/11/09 10:38:50;;;;;;;2.83;1.55;;;12.00;99.90;;;;;;5070653;28;20032;-83
2021/11/09 10:41:16;;;;;;;3.78;2.30;;;12.00;99.90;;;;;;5073105;28;20024;-81
2021/11/09 10:43:43;;;;;;;3.53;1.67;;;12.00;99.90;;;;;;5073437;28;20089;-82
2021/11/09 10:46:24;;;;;;;6.10;3.10;;;12.00;99.90;;;;;;5073228;28;20017;-82
2021/11/09 10:48:49;;;;;;;4.47;2.20;;;12.00;99.90;;;;;;5073205;28;20020;-81
2021/11/09 10:51:15;;;;;;;5.05;2.10;;;12.00;99.90;;;;;;5073113;28;20383;-82
2021/11/09 10:53:46;;;;;;;2.67;1.90;;;12.10;99.90;;;;;;5073610;28;20086;-82
2021/11/09 11:04:40;;;;;;;2.30;2.03;;;12.00;99.90;;;;;;5083275;28;20489;-82
2021/11/09 11:07:12;;;;;;;2.42;2.08;;;12.00;99.90;;;;;;5073274;28;20115;-83
2021/11/09 11:09:40;;;;;;;5.47;1.80;;;12.10;99.90;;;;;;5073467;28;20025;-82
2021/11/09 11:12:11;;;;;;;4.38;2.10;;;12.10;99.90;;;;;;5073139;28;20031;-82
2021/11/09 11:14:40;;;;;;;2.35;2.10;;;12.10;99.90;;;;;;5073284;28;20100;-82
2021/11/09 11:17:09;;;;;;;2.85;2.03;;;12.10;99.90;;;;;;5073052;28;20020;-82
2021/11/09 11:19:44;;;;;;;6.45;3.13;;;12.10;99.90;;;;;;5071781;28;20019;-82
2021/11/09 11:22:18;;;;;;;7.82;2.20;;;12.20;99.90;;;;;;5072922;28;20102;-82
2021/11/09 11:24:45;;;;;;;3.70;2.03;;;12.20;99.90;;;;;;5056087;28;20029;-82
2021/11/09 11:27:13;;;;;;;8.45;2.28;;;12.20;99.90;;;;;;5052947;28;20024;-83
2021/11/09 11:29:39;;;;;;;2.08;1.90;;;12.30;99.90;;;;;;5052930;28;20109;-81
2021/11/09 11:32:11;;;;;;;2.83;2.10;;;12.30;99.90;;;;;;5052913;28;20049;-82
2021/11/09 11:34:38;;;;;;;;;;;12.30;99.90;;;;;;5053320;28;20033;-82
2021/11/09 11:37:04;;;;;;;1.85;1.75;;;12.40;99.90;;;;;;5052788;28;19904;-82
2021/11/09 11:39:33;;;;;;;2.05;1.92;;;12.40;99.90;;;;;;5052671;28;20100;-82
2021/11/09 11:42:02;;;;;;;3.20;2.10;;;12.40;99.90;;;;;;5051324;28;20029;-82
2021/11/09 11:44:30;;;;;;;2.45;2.25;;;12.40;99.90;;;;;;5052818;28;20028;-82
2021/11/09 11:47:02;;;;;;;2.67;2.45;;;12.40;99.90;;;;;;5052750;28;20025;-81
2021/11/09 11:49:29;;;;;;;2.60;2.40;;;12.50;99.90;;;;;;5052627;28;20031;-83
2021/11/09 11:51:55;;;;;;;3.45;1.98;;;12.50;99.90;;;;;;5051158;28;20119;-82
2021/11/09 11:54:53;;;;;;;2.50;2.30;;;12.50;99.90;;;;;;5052403;28;20535;-83
2021/11/09 11:57:53;;;;;;;2.47;1.90;;;12.50;99.90;;;;;;5039638;28;20029;-83
2021/11/09 12:00:41;;;;;;;4.20;3.03;;;12.50;99.90;;;;;;5052446;28;20494;-82
2021/11/09 12:03:19;;;;;;;2.40;2.20;;;12.50;99.90;;;;;;5051113;28;20017;-82
2021/11/09 12:05:46;;;;;;;6.25;2.28;;;12.50;99.90;;;;;;5052231;28;20032;-83
2021/11/09 12:08:45;;;;;;;2.28;2.08;;;12.60;99.90;;;;;;5052082;28;20414;-83
2021/11/09 12:11:23;;;;;;;1.73;1.60;;;12.60;99.90;;;;;;5051755;28;20044;-82
2021/11/09 12:13:59;;;;;;;2.45;2.25;;;12.60;99.90;;;;;;5052134;28;20025;-83
2021/11/09 12:16:49;;;;;;;4.50;2.28;;;12.60;99.90;;;;;;5052238;28;20059;-81
2021/11/09 12:19:37;;;;;;;2.10;2.00;;;12.60;99.90;;;;;;5051983;28;20032;-83
2021/11/09 12:22:15;;;;;;;6.25;2.20;;;12.60;99.90;;;;;;5050668;28;20029;-82
2021/11/09 12:24:52;;;;;;;3.92;2.15;;;12.60;99.90;;;;;;5050907;28;20021;-83
2021/11/09 12:27:19;;;;;;;4.72;1.95;;;12.60;99.90;;;;;;5052008;28;20048;-82
2021/11/09 12:29:48;;;;;;;4.68;2.13;;;12.60;99.90;;;;;;5052022;28;20100;-83
2021/11/09 12:32:24;;;;;;;2.88;2.22;;;12.60;99.90;;;;;;5051904;28;20029;-83
2021/11/09 12:35:05;;;;;;;3.67;2.15;;;12.50;99.90;;;;;;5057913;28;20494;-82
2021/11/09 12:37:37;;;;;;;2.53;1.98;;;12.50;99.90;;;;;;5071739;28;20028;-83
2021/11/09 12:40:32;;;;;;;5.68;2.05;;;12.60;99.90;;;;;;5071898;28;20418;-82
2021/11/09 12:43:18;;;;;;;2.28;1.88;;;12.60;99.90;;;;;;5071549;28;20708;-82
2021/11/09 12:45:46;;;;;;;2.17;1.98;;;12.60;99.90;;;;;;5071529;28;20089;-82
2021/11/09 12:48:14;;;;;;;4.97;2.30;;;12.60;99.90;;;;;;5071692;28;20024;-82
2021/11/09 12:51:16;;;;;;;3.25;2.30;;;12.60;99.90;;;;;;5070471;28;20032;-82
2021/11/09 12:53:43;;;;;;;;;;;12.60;99.90;;;;;;5062953;28;20045;-82
2021/11/09 12:56:33;;;;;;;3.47;2.03;;;12.70;99.90;;;;;;5071482;28;19911;-82
2021/11/09 12:59:12;;;;;;;2.22;2.03;;;12.70;99.90;;;;;;5071676;28;20074;-82
2021/11/09 13:05:03;;;;;;;1.90;1.73;;;12.80;99.90;;;;;;5071619;28;20028;-82
2021/11/09 13:07:49;;;;;;;2.80;2.05;;;12.80;99.90;;;;;;5069040;28;20031;-82
2021/11/09 13:10:04;;;;;;;2.40;2.10;;;12.80;99.90;;;;;;5070724;28;20036;-82
2021/11/09 13:12:33;;;;;;;3.17;1.98;;;12.90;99.90;;;;;;5070109;28;20025;-82
2021/11/09 13:15:12;;;;;;;2.25;2.03;;;12.90;99.90;;;;;;5071275;28;20025;-82
2021/11/09 13:17:42;;;;;;;4.57;1.90;;;13.00;99.90;;;;;;5070056;28;20102;-82
2021/11/09 13:20:34;;;;;;;2.08;1.90;;;13.00;99.90;;;;;;5071283;28;20059;-82
2021/11/09 13:23:03;;;;;;;4.07;2.33;;;13.00;99.90;;;;;;5073301;28;20021;-82
2021/11/09 13:25:35;;;;;;;2.08;1.88;;;13.00;99.90;;;;;;5075451;28;20023;-82
2021/11/09 13:28:13;;;;;;;2.58;2.38;;;13.00;99.90;;;;;;5076500;28;20024;-82
2021/11/09 13:30:40;;;;;;;2.08;1.90;;;13.00;99.90;;;;;;5076378;28;20048;-82
2021/11/09 13:33:08;;;;;;;2.38;2.03;;;13.00;99.90;;;;;;5076415;28;20082;-82
2021/11/09 13:35:37;;;;;;;3.33;1.98;;;12.90;99.90;;;;;;5076167;28;20055;-82
2021/11/09 13:38:19;;;;;;;3.10;1.85;;;12.90;99.90;;;;;;5076289;28;20036;-82
2021/11/09 13:40:58;;;;;;;5.85;2.22;;;12.90;99.90;;;;;;5076505;28;20025;-82
2021/11/09 13:43:33;;;;;;;4.57;2.63;;;12.80;99.90;;;;;;5075569;28;20027;-82
2021/11/09 13:46:11;;;;;;;2.28;1.90;;;12.80;99.90;;;;;;5075142;28;20024;-82
2021/11/09 13:48:39;;;;;;;2.83;2.03;;;12.80;99.90;;;;;;5075268;28;20482;-82
2021/11/09 13:51:11;;;;;;;4.93;2.60;;;12.90;99.90;;;;;;5073771;28;20429;-81
2021/11/09 13:53:41;;;;;;;2.63;2.05;;;12.90;99.90;;;;;;5075375;28;20450;-82
2021/11/09 13:56:12;;;;;;;4.55;2.83;;;13.00;99.90;;;;;;5073723;28;20530;-82
2021/11/09 13:58:39;;;;;;;5.00;2.35;;;13.00;99.90;;;;;;5074971;28;20090;-81
2021/11/09 14:01:06;;;;;;;2.30;2.10;;;12.90;99.90;;;;;;5074934;28;20091;-81
2021/11/09 14:16:41;;;;;;;2.95;2.40;;;12.70;99.90;;;;;;5074462;28;20056;-82
2021/11/09 14:19:11;;;;;;;2.97;2.67;;;12.60;99.90;;;;;;5075293;28;20052;-82
2021/11/09 14:21:42;;;;;;;3.90;3.13;;;12.60;99.90;;;;;;5075488;28;20453;-82
2021/11/09 14:24:16;;;;;;;3.88;3.03;;;12.60;99.90;;;;;;5064623;28;20100;-83
2021/11/09 14:26:43;;;;;;;5.38;2.58;;;12.60;99.90;;;;;;5053646;28;20021;-81
2021/11/09 14:29:19;;;;;;;2.90;2.70;;;12.50;99.90;;;;;;5055357;28;20029;-82
2021/11/09 14:32:03;;;;;;;3.20;2.70;;;12.50;99.90;;;;;;5069694;28;20062;-81
2021/11/09 14:34:29;;;;;;;9.02;2.67;;;12.40;99.90;;;;;;5071893;28;20025;-81
2021/11/09 14:37:18;;;;;;;2.80;2.47;;;12.40;99.90;;;;;;5073224;28;20032;-82
2021/11/09 14:40:05;;;;;;;7.20;2.60;;;12.40;99.90;;;;;;5070861;28;20390;-81
2021/11/09 14:43:03;;;;;;;5.68;2.70;;;12.40;99.90;;;;;;5069025;28;20028;-82
2021/11/09 14:45:37;;;;;;;2.33;2.10;;;12.30;99.90;;;;;;5055033;28;20360;-82
2021/11/09 14:48:10;;;;;;;2.95;2.45;;;12.30;99.90;;;;;;5053912;28;20086;-82
2021/11/09 14:53:21;;;;;;;4.97;2.35;;;12.20;99.90;;;;;;5054997;28;20037;-82
2021/11/09 14:56:08;;;;;;;2.40;2.10;;;12.20;99.90;;;;;;5052997;28;20024;-82
2021/11/09 14:58:45;;;;;;;4.43;2.20;;;12.20;99.90;;;;;;5072772;28;20020;-82
2021/11/09 15:04:07;;;;;;;18.38;6.18;;;12.10;99.90;;;;;;5074224;28;20032;-76
2021/11/09 15:06:45;;;;;;;12.02;5.50;;;12.10;99.90;;;;;;5073240;28;20390;-77
2021/11/09 15:12:35;;;;;;;15.38;5.30;;;12.00;99.90;;;;;;5072994;28;20062;-76
2021/11/09 15:28:12;;;;;;;11.57;5.15;;;11.50;99.90;;;;;;5053020;28;20024;-77
2021/11/09 15:33:27;;;;;;;8.43;4.93;;;11.50;99.90;;;;;;5052995;28;20402;-76
2021/11/09 15:38:35;;;;;;;4.90;3.67;;;11.20;99.90;;;;;;5052885;28;20029;-76
2021/11/09 15:41:03;;;;;;;3.97;3.50;;;11.20;99.90;;;;;;5052780;28;20024;-76
2021/11/09 15:43:32;;;;;;;3.95;3.53;;;11.20;99.90;;;;;;5051291;28;20031;-77
2021/11/09 15:45:59;;;;;;;6.30;3.40;;;11.20;99.90;;;;;;5052179;28;20056;-76
2021/11/09 15:48:25;;;;;;;5.68;4.07;;;11.10;99.90;;;;;;5051386;28;20560;-76
2021/11/09 15:50:51;;;;;;;7.00;3.10;;;11.10;99.90;;;;;;5052686;28;20172;-76
2021/11/09 15:53:17;;;;;;;5.40;3.38;;;11.00;99.90;;;;;;5056037;28;20433;-77
2021/11/09 15:55:43;;;;;;;5.82;3.30;;;11.00;99.90;;;;;;5072532;28;20060;-76
2021/11/09 15:58:09;;;;;;;5.50;2.97;;;10.90;99.90;;;;;;5072310;28;20038;-77
2021/11/09 16:00:35;;;;;;;5.47;2.78;;;10.90;99.90;;;;;;5070906;28;20094;-76
2021/11/09 16:03:01;;;;;;;4.85;3.50;;;10.90;99.90;;;;;;5072277;28;20028;-76
2021/11/09 16:05:27;;;;;;;4.03;3.38;;;10.80;99.90;;;;;;5071063;28;20056;-76